Time;durP1;ratioP1;P1;durP2;ratioP2;P2;SDS_P1;SDS_P2;PMS_P1;PMS_P2;Temp;Humidity;BMP_temperature;BMP_pressure;BME280_temperature;BME280_humidity;BME280_pressure;Samples;Min_cycle;Max_cycle;Signal;HPM_P1;HPM_P2
2023/06/22 00:00:00;;;;;;;21.35;11.15;;;18.80;99.90;;;;;;5025156;28;20041;-75
2023/06/22 00:02:26;;;;;;;20.75;10.40;;;18.70;99.90;;;;;;5026668;28;20396;-76
2023/06/22 00:04:52;;;;;;;17.23;9.80;;;18.80;99.90;;;;;;5026806;28;20033;-75
2023/06/22 00:07:17;;;;;;;21.85;12.45;;;18.70;99.90;;;;;;5025767;28;20045;-75
2023/06/22 00:09:43;;;;;;;19.67;10.88;;;18.70;99.90;;;;;;5025904;28;20112;-76
2023/06/22 00:12:08;;;;;;;21.25;11.23;;;18.70;99.90;;;;;;5038535;28;20458;-75
2023/06/22 00:14:34;;;;;;;21.17;11.65;;;18.60;99.90;;;;;;5046848;28;20111;-75
2023/06/22 00:16:59;;;;;;;20.85;11.20;;;18.60;99.90;;;;;;5030193;28;20080;-77
2023/06/22 00:19:25;;;;;;;24.17;10.25;;;18.50;99.90;;;;;;5025520;28;20060;-75
2023/06/22 00:21:53;;;;;;;17.60;10.65;;;18.50;99.90;;;;;;5025464;28;20044;-75
2023/06/22 00:24:20;;;;;;;21.33;11.25;;;18.50;99.90;;;;;;5025420;28;20715;-75
2023/06/22 00:26:45;;;;;;;18.20;10.48;;;18.50;99.90;;;;;;5025424;28;20133;-76
2023/06/22 00:29:11;;;;;;;21.60;11.23;;;18.60;99.90;;;;;;5026351;28;20128;-74
2023/06/22 00:31:36;;;;;;;19.48;11.82;;;18.50;99.90;;;;;;5024880;28;20244;-77
2023/06/22 00:34:02;;;;;;;17.27;10.52;;;18.50;99.90;;;;;;5025964;28;20123;-75
2023/06/22 00:36:28;;;;;;;18.73;10.43;;;18.60;99.90;;;;;;5025800;28;20041;-75
2023/06/22 00:38:53;;;;;;;21.02;10.30;;;18.50;99.90;;;;;;5025870;28;20496;-76
2023/06/22 00:41:19;;;;;;;19.85;10.82;;;18.50;99.90;;;;;;5025414;28;20092;-75
2023/06/22 00:43:45;;;;;;;17.15;10.52;;;18.50;99.90;;;;;;5035818;28;20049;-74
2023/06/22 00:46:11;;;;;;;14.07;8.75;;;18.40;99.90;;;;;;5045946;28;20546;-76
2023/06/22 00:48:36;;;;;;;14.68;8.35;;;18.40;99.90;;;;;;5030512;28;20607;-75
2023/06/22 00:51:02;;;;;;;13.98;8.07;;;18.30;99.90;;;;;;5025587;28;20053;-76
2023/06/22 00:53:28;;;;;;;11.68;7.03;;;18.30;99.90;;;;;;5025108;28;20029;-75
2023/06/22 00:55:55;;;;;;;10.02;6.38;;;18.30;99.90;;;;;;5026033;28;20171;-75
2023/06/22 00:58:21;;;;;;;7.03;5.35;;;18.20;99.90;;;;;;5025070;28;20037;-75
2023/06/22 01:00:47;;;;;;;10.65;7.40;;;18.20;99.90;;;;;;5026042;28;20046;-76
2023/06/22 01:03:14;;;;;;;12.30;7.07;;;18.20;99.90;;;;;;5023936;28;20057;-76
2023/06/22 01:05:40;;;;;;;11.77;7.90;;;18.10;99.90;;;;;;5024391;28;20045;-76
2023/06/22 01:08:05;;;;;;;9.52;7.00;;;18.00;99.90;;;;;;5024667;28;20044;-74
2023/06/22 01:10:57;;;;;;;14.82;9.65;;;18.00;99.90;;;;;;5023683;28;20180;-74
2023/06/22 01:13:52;;;;;;;10.90;8.10;;;17.90;99.90;;;;;;5027141;28;20090;-76
2023/06/22 01:16:21;;;;;;;11.18;8.15;;;17.90;99.90;;;;;;5041315;28;20049;-74
2023/06/22 01:18:49;;;;;;;12.13;8.30;;;17.90;99.90;;;;;;5029829;28;20420;-75
2023/06/22 01:21:18;;;;;;;12.82;8.27;;;17.80;99.90;;;;;;5023747;28;20071;-75
2023/06/22 01:24:07;;;;;;;15.75;8.60;;;17.80;99.90;;;;;;5025291;28;20484;-74
2023/06/22 01:26:40;;;;;;;15.18;9.75;;;17.80;99.90;;;;;;5023557;28;20053;-76
2023/06/22 01:29:08;;;;;;;13.57;8.35;;;17.70;99.90;;;;;;5024895;28;20041;-76
2023/06/22 01:31:35;;;;;;;12.35;8.40;;;17.70;99.90;;;;;;5025220;28;20080;-75
2023/06/22 01:34:04;;;;;;;14.00;8.65;;;17.70;99.90;;;;;;5023305;28;20042;-75
2023/06/22 01:36:31;;;;;;;13.32;9.00;;;17.70;99.90;;;;;;5024705;28;20051;-77
2023/06/22 01:38:58;;;;;;;12.80;8.48;;;17.70;99.90;;;;;;5025345;28;20041;-76
2023/06/22 01:41:26;;;;;;;16.35;9.85;;;17.70;99.90;;;;;;5024839;28;20081;-75
2023/06/22 01:43:54;;;;;;;17.13;9.70;;;17.70;99.90;;;;;;5023963;28;20472;-75
2023/06/22 01:46:21;;;;;;;14.60;9.82;;;17.70;99.90;;;;;;5043485;28;20143;-75
2023/06/22 01:48:47;;;;;;;16.17;9.75;;;17.80;99.90;;;;;;5035601;28;20057;-75
2023/06/22 01:51:14;;;;;;;16.08;10.23;;;17.80;99.90;;;;;;5005822;28;20520;-76
2023/06/22 01:53:40;;;;;;;15.05;10.63;;;17.70;99.90;;;;;;5023526;28;20168;-75
2023/06/22 01:56:05;;;;;;;15.82;10.13;;;17.80;99.90;;;;;;5023972;28;20128;-75
2023/06/22 01:58:33;;;;;;;18.25;10.82;;;17.80;99.90;;;;;;5024689;28;20038;-75
2023/06/22 02:01:13;;;;;;;21.10;11.50;;;17.80;99.90;;;;;;5023607;28;20057;-75
2023/06/22 02:03:48;;;;;;;16.20;10.40;;;17.80;99.90;;;;;;5023636;28;20037;-75
2023/06/22 02:06:23;;;;;;;16.92;9.35;;;17.90;99.90;;;;;;5022614;28;20099;-75
2023/06/22 02:08:56;;;;;;;18.30;11.38;;;17.80;99.90;;;;;;5023832;28;20053;-75
2023/06/22 02:11:23;;;;;;;15.57;10.10;;;17.80;99.90;;;;;;5024327;28;20053;-75
2023/06/22 02:13:50;;;;;;;16.77;10.82;;;17.80;99.90;;;;;;5024851;28;20052;-76
2023/06/22 02:16:17;;;;;;;18.10;10.02;;;17.80;99.90;;;;;;5023361;28;20041;-75
2023/06/22 02:18:51;;;;;;;18.65;10.77;;;17.80;99.90;;;;;;5023234;28;20041;-76
2023/06/22 02:21:20;;;;;;;18.45;11.30;;;17.80;99.90;;;;;;5022734;28;20195;-75
2023/06/22 02:23:47;;;;;;;16.63;10.40;;;17.80;99.90;;;;;;5024558;28;20392;-75
2023/06/22 02:26:13;;;;;;;18.02;10.10;;;17.70;99.90;;;;;;5023843;28;20056;-76
2023/06/22 02:28:39;;;;;;;17.75;10.75;;;17.70;99.90;;;;;;5039326;28;20119;-75
2023/06/22 02:31:04;;;;;;;16.23;10.75;;;17.70;99.90;;;;;;5044323;28;20068;-75
2023/06/22 02:33:30;;;;;;;17.48;10.48;;;17.70;99.90;;;;;;5034162;28;20146;-76
2023/06/22 02:35:56;;;;;;;18.98;9.75;;;17.70;99.90;;;;;;5023287;28;20064;-75
2023/06/22 02:38:24;;;;;;;17.42;10.18;;;17.70;99.90;;;;;;5022904;28;20045;-75
2023/06/22 02:40:50;;;;;;;17.88;9.50;;;17.70;99.90;;;;;;5023925;28;20512;-75
2023/06/22 02:43:15;;;;;;;19.05;10.80;;;17.70;99.90;;;;;;5042310;28;20131;-75
2023/06/22 02:45:41;;;;;;;19.60;10.35;;;17.70;99.90;;;;;;5036248;28;20112;-74
2023/06/22 02:48:07;;;;;;;18.45;10.75;;;17.60;99.90;;;;;;5022937;28;20081;-76
2023/06/22 02:50:32;;;;;;;19.65;10.27;;;17.70;99.90;;;;;;5022942;28;20041;-75
2023/06/22 02:52:58;;;;;;;18.90;10.55;;;17.70;99.90;;;;;;5023425;28;20528;-75
2023/06/22 02:55:23;;;;;;;18.55;10.75;;;17.60;99.90;;;;;;5022797;28;20392;-76
2023/06/22 02:57:52;;;;;;;17.42;10.93;;;17.60;99.90;;;;;;5023735;28;20053;-75
2023/06/22 03:00:19;;;;;;;18.88;11.35;;;17.60;99.90;;;;;;5022325;28;20398;-75
2023/06/22 03:02:46;;;;;;;18.20;11.20;;;17.60;99.90;;;;;;5023219;28;20037;-75
2023/06/22 03:05:13;;;;;;;18.67;10.30;;;17.50;99.90;;;;;;5020535;28;20045;-75
2023/06/22 03:07:42;;;;;;;20.08;10.73;;;17.50;99.90;;;;;;5021094;28;20111;-75
2023/06/22 03:10:12;;;;;;;21.92;10.88;;;17.40;99.90;;;;;;5022068;28;20050;-75
2023/06/22 03:12:39;;;;;;;17.33;10.90;;;17.40;99.90;;;;;;5035370;28;20049;-77
2023/06/22 03:15:10;;;;;;;19.17;11.00;;;17.30;99.90;;;;;;5043615;28;20044;-76
2023/06/22 03:17:37;;;;;;;16.80;10.60;;;17.30;99.90;;;;;;5040813;28;20060;-75
2023/06/22 03:20:12;;;;;;;16.23;9.93;;;17.30;99.90;;;;;;5022828;28;20067;-75
2023/06/22 03:22:39;;;;;;;15.23;9.80;;;17.30;99.90;;;;;;5021242;28;20103;-75
2023/06/22 03:25:10;;;;;;;19.13;10.77;;;17.30;99.90;;;;;;5023916;28;20052;-75
2023/06/22 03:27:37;;;;;;;15.07;10.30;;;17.30;99.90;;;;;;5022259;28;20436;-75
2023/06/22 03:30:03;;;;;;;19.73;11.10;;;17.30;99.90;;;;;;5023567;28;20049;-75
2023/06/22 03:32:28;;;;;;;17.58;11.60;;;17.30;99.90;;;;;;5023694;28;20103;-75
2023/06/22 03:34:56;;;;;;;17.80;10.82;;;17.20;99.90;;;;;;5027538;28;20041;-75
2023/06/22 03:37:21;;;;;;;15.50;9.88;;;17.20;99.90;;;;;;5025049;28;20084;-75
2023/06/22 03:39:47;;;;;;;15.55;9.70;;;17.20;99.90;;;;;;5026376;28;20107;-75
2023/06/22 03:42:15;;;;;;;15.88;10.30;;;17.20;99.90;;;;;;5025588;28;20057;-75
2023/06/22 03:44:41;;;;;;;16.40;9.68;;;17.20;99.90;;;;;;5026305;28;20041;-75
2023/06/22 03:47:07;;;;;;;16.05;9.70;;;17.20;99.90;;;;;;5026980;28;20077;-75
2023/06/22 03:49:34;;;;;;;16.05;10.63;;;17.20;99.90;;;;;;5027125;28;20045;-75
2023/06/22 03:52:01;;;;;;;14.30;10.30;;;17.20;99.90;;;;;;5026690;28;20406;-76
2023/06/22 03:54:29;;;;;;;14.40;10.05;;;17.20;99.90;;;;;;5027273;28;20061;-75
2023/06/22 03:56:54;;;;;;;17.58;9.82;;;17.10;99.90;;;;;;5025384;28;20531;-76
2023/06/22 03:59:20;;;;;;;15.20;9.65;;;17.10;99.90;;;;;;5042593;28;20116;-76
2023/06/22 04:01:46;;;;;;;14.82;9.90;;;17.20;99.90;;;;;;5037448;28;20088;-76
2023/06/22 04:04:12;;;;;;;14.30;9.25;;;17.10;99.90;;;;;;5008124;28;20549;-76
2023/06/22 04:06:38;;;;;;;14.52;9.45;;;17.10;99.90;;;;;;5024660;28;20041;-76
2023/06/22 04:09:05;;;;;;;15.35;10.27;;;17.10;99.90;;;;;;5026442;28;20049;-75
2023/06/22 04:11:30;;;;;;;15.32;10.00;;;17.10;99.90;;;;;;5008627;28;20046;-76
2023/06/22 04:13:56;;;;;;;17.98;9.43;;;17.10;99.90;;;;;;5025769;28;20049;-76
2023/06/22 04:16:22;;;;;;;18.20;10.48;;;17.20;99.90;;;;;;5026402;28;20045;-76
2023/06/22 04:18:47;;;;;;;16.30;10.52;;;17.20;99.90;;;;;;5026533;28;20396;-75
2023/06/22 04:21:13;;;;;;;19.70;10.38;;;17.20;99.90;;;;;;5007369;28;20077;-75
2023/06/22 04:23:39;;;;;;;15.48;9.48;;;17.20;99.90;;;;;;5025465;28;20597;-75
2023/06/22 04:26:05;;;;;;;15.43;10.48;;;17.20;99.90;;;;;;5026524;28;20099;-75
2023/06/22 04:28:35;;;;;;;16.65;9.82;;;17.30;99.90;;;;;;5026084;28;20041;-76
2023/06/22 04:31:04;;;;;;;17.10;10.00;;;17.30;99.90;;;;;;5046293;28;20048;-76
2023/06/22 04:33:31;;;;;;;16.75;9.80;;;17.30;99.90;;;;;;5040990;28;20598;-76
2023/06/22 04:36:03;;;;;;;15.43;9.88;;;17.40;99.90;;;;;;5025976;28;20038;-76
2023/06/22 04:38:32;;;;;;;14.90;10.00;;;17.40;99.90;;;;;;5008960;28;20045;-75
2023/06/22 04:40:58;;;;;;;15.63;10.00;;;17.40;99.90;;;;;;5024884;28;20053;-76
2023/06/22 04:43:24;;;;;;;10.43;8.10;;;17.40;99.90;;;;;;5024455;28;20056;-75
2023/06/22 04:45:52;;;;;;;13.43;9.20;;;17.40;99.90;;;;;;5025845;28;20408;-76
2023/06/22 04:48:18;;;;;;;14.68;9.38;;;17.50;99.90;;;;;;5024499;28;20053;-75
2023/06/22 04:50:44;;;;;;;14.02;9.43;;;17.50;99.90;;;;;;5025301;28;20496;-75
2023/06/22 04:53:12;;;;;;;17.00;9.70;;;17.50;99.90;;;;;;5025983;28;20112;-75
2023/06/22 04:55:41;;;;;;;14.60;10.15;;;17.50;99.90;;;;;;5026351;28;20087;-75
2023/06/22 04:58:07;;;;;;;20.40;11.43;;;17.50;99.90;;;;;;5025860;28;20953;-75
2023/06/22 05:00:36;;;;;;;17.75;11.00;;;17.50;99.90;;;;;;5024824;28;20485;-81
2023/06/22 05:03:03;;;;;;;19.05;10.25;;;17.50;99.90;;;;;;5024325;28;20049;-75
2023/06/22 05:05:29;;;;;;;19.42;10.80;;;17.50;99.90;;;;;;5025656;28;20033;-76
2023/06/22 05:07:59;;;;;;;17.85;10.68;;;17.50;99.90;;;;;;4998068;28;20067;-75
2023/06/22 05:10:25;;;;;;;21.05;10.90;;;17.50;99.90;;;;;;5023520;28;20121;-76
2023/06/22 05:12:51;;;;;;;19.20;10.80;;;17.50;99.90;;;;;;5025782;28;20045;-76
2023/06/22 05:15:19;;;;;;;18.65;10.80;;;17.50;99.90;;;;;;5023979;28;20049;-74
2023/06/22 05:17:44;;;;;;;19.70;11.35;;;17.50;99.90;;;;;;5023352;28;20042;-73
2023/06/22 05:20:11;;;;;;;20.35;11.77;;;17.60;99.90;;;;;;5024640;28;20798;-73
2023/06/22 05:22:37;;;;;;;20.27;11.38;;;17.60;99.90;;;;;;5024744;28;20041;-73
2023/06/22 05:25:03;;;;;;;19.48;11.48;;;17.70;99.90;;;;;;5026179;28;20050;-73
2023/06/22 05:27:29;;;;;;;21.23;12.27;;;17.70;99.90;;;;;;5023286;28;20041;-73
2023/06/22 05:29:54;;;;;;;21.33;11.82;;;17.80;99.90;;;;;;5020133;28;20059;-72
2023/06/22 05:32:20;;;;;;;21.35;13.00;;;17.80;99.90;;;;;;5014664;28;20064;-73
2023/06/22 05:34:46;;;;;;;23.05;12.90;;;17.80;99.90;;;;;;5028802;28;20424;-73
2023/06/22 05:37:12;;;;;;;19.83;12.25;;;17.90;99.90;;;;;;5023785;28;20084;-73
2023/06/22 05:39:38;;;;;;;21.25;11.57;;;17.90;99.90;;;;;;5004908;28;20515;-73
2023/06/22 05:42:07;;;;;;;23.33;11.65;;;17.90;99.90;;;;;;5003673;28;20265;-73
2023/06/22 05:44:33;;;;;;;24.42;12.32;;;18.00;99.90;;;;;;5022304;28;20068;-73
2023/06/22 05:46:59;;;;;;;20.25;10.60;;;18.00;99.90;;;;;;5024943;28;20496;-73
2023/06/22 05:49:29;;;;;;;20.95;10.98;;;18.10;99.90;;;;;;5043645;28;20049;-74
2023/06/22 05:51:56;;;;;;;19.13;11.60;;;18.10;99.90;;;;;;5031189;28;20040;-73
2023/06/22 05:54:22;;;;;;;19.27;11.43;;;18.10;99.90;;;;;;5027481;28;20041;-73
2023/06/22 05:56:47;;;;;;;25.85;13.35;;;18.20;99.90;;;;;;5025898;28;20454;-74
2023/06/22 05:59:13;;;;;;;21.92;11.48;;;18.20;99.90;;;;;;5019829;28;20095;-74
2023/06/22 06:01:40;;;;;;;23.45;13.13;;;18.30;99.90;;;;;;5024698;28;20037;-74
2023/06/22 06:04:07;;;;;;;22.48;11.88;;;18.30;99.90;;;;;;5032463;28;20040;-74
2023/06/22 06:06:34;;;;;;;18.58;11.20;;;18.40;99.90;;;;;;5030291;28;20037;-73
2023/06/22 06:09:00;;;;;;;21.33;12.23;;;18.40;99.90;;;;;;5029473;28;20041;-74
2023/06/22 06:11:26;;;;;;;17.98;11.65;;;18.50;99.90;;;;;;5024023;28;20056;-73
2023/06/22 06:13:52;;;;;;;18.05;11.20;;;18.50;99.90;;;;;;5022593;28;20037;-73
2023/06/22 06:16:17;;;;;;;18.05;11.80;;;18.50;99.90;;;;;;5023910;28;20128;-74
2023/06/22 06:18:43;;;;;;;17.85;10.65;;;18.60;99.90;;;;;;5031100;28;20036;-70
2023/06/22 06:21:09;;;;;;;17.40;10.48;;;18.60;99.90;;;;;;5006558;28;20492;-70
2023/06/22 06:23:34;;;;;;;17.85;10.07;;;18.60;99.90;;;;;;5022736;28;20045;-70
2023/06/22 06:26:01;;;;;;;15.25;9.93;;;18.60;99.90;;;;;;5023330;28;20045;-72
2023/06/22 06:28:27;;;;;;;16.73;10.13;;;18.60;99.90;;;;;;5024140;28;20503;-70
2023/06/22 06:30:52;;;;;;;18.00;9.82;;;18.70;99.90;;;;;;5023141;28;20120;-70
2023/06/22 06:33:18;;;;;;;16.42;10.38;;;18.70;99.90;;;;;;5005538;28;20136;-71
2023/06/22 06:35:44;;;;;;;16.85;10.77;;;18.70;99.90;;;;;;5020983;28;20041;-70
2023/06/22 06:38:10;;;;;;;19.60;11.10;;;18.70;99.90;;;;;;5021564;28;20045;-71
2023/06/22 06:40:36;;;;;;;23.00;10.65;;;18.80;99.90;;;;;;5023441;28;20038;-70
2023/06/22 06:43:01;;;;;;;17.90;10.60;;;18.80;99.90;;;;;;5021671;28;20128;-71
2023/06/22 06:45:28;;;;;;;20.45;11.88;;;18.80;99.90;;;;;;5023660;28;20143;-70
2023/06/22 06:47:54;;;;;;;18.65;11.40;;;18.80;99.90;;;;;;5021835;28;20050;-70
2023/06/22 06:50:19;;;;;;;22.70;12.35;;;18.80;99.90;;;;;;5020795;28;20048;-71
2023/06/22 06:52:45;;;;;;;21.55;12.52;;;18.80;99.90;;;;;;5005531;28;20053;-70
2023/06/22 06:55:14;;;;;;;21.67;12.85;;;18.80;99.90;;;;;;5027646;28;20407;-71
2023/06/22 06:57:41;;;;;;;26.27;12.50;;;18.90;99.90;;;;;;5043299;28;20044;-70
2023/06/22 07:00:11;;;;;;;25.77;13.32;;;18.90;99.90;;;;;;5027773;28;20532;-70
2023/06/22 07:02:39;;;;;;;30.77;13.75;;;18.90;99.90;;;;;;5021787;28;20057;-69
2023/06/22 07:05:05;;;;;;;25.90;12.65;;;18.90;99.90;;;;;;5004415;28;20357;-71
2023/06/22 07:07:31;;;;;;;22.88;13.20;;;19.00;99.90;;;;;;5017087;28;20041;-71
2023/06/22 07:09:57;;;;;;;20.95;12.55;;;19.00;99.90;;;;;;5003949;28;20450;-70
2023/06/22 07:12:23;;;;;;;23.52;12.18;;;19.10;99.90;;;;;;5020911;28;20075;-71
2023/06/22 07:14:50;;;;;;;19.63;12.13;;;19.10;99.90;;;;;;5040040;28;20037;-71
2023/06/22 07:17:15;;;;;;;19.63;12.52;;;19.10;99.90;;;;;;5043062;28;20045;-70
2023/06/22 07:19:42;;;;;;;19.30;13.23;;;19.20;99.90;;;;;;5027249;28;20143;-70
2023/06/22 07:22:07;;;;;;;22.58;12.18;;;19.20;99.90;;;;;;5024519;28;20132;-70
2023/06/22 07:24:33;;;;;;;22.77;12.73;;;19.20;99.90;;;;;;5025498;28;20133;-69
2023/06/22 07:26:59;;;;;;;23.15;13.57;;;19.30;99.90;;;;;;5025633;28;20073;-70
2023/06/22 07:29:26;;;;;;;22.90;11.93;;;19.40;99.90;;;;;;5025176;28;20076;-70
2023/06/22 07:31:52;;;;;;;18.75;11.35;;;19.50;99.90;;;;;;5025792;28;20045;-70
2023/06/22 07:34:18;;;;;;;20.92;12.00;;;19.50;99.90;;;;;;5025830;28;20045;-70
2023/06/22 07:36:44;;;;;;;19.65;11.57;;;19.60;99.90;;;;;;5025931;28;20037;-70
2023/06/22 07:39:10;;;;;;;18.88;11.10;;;19.60;99.90;;;;;;5024292;28;20480;-70
2023/06/22 07:41:36;;;;;;;20.50;11.10;;;19.60;99.90;;;;;;5026742;28;20152;-70
2023/06/22 07:44:03;;;;;;;17.48;10.60;;;19.70;99.90;;;;;;5026332;28;20068;-70
2023/06/22 07:46:30;;;;;;;17.73;10.77;;;19.70;99.90;;;;;;5026436;28;20136;-70
2023/06/22 07:48:56;;;;;;;18.45;11.05;;;19.70;99.90;;;;;;5026753;28;20045;-70
2023/06/22 07:51:23;;;;;;;15.40;9.18;;;19.80;99.90;;;;;;5023578;28;20518;-70
2023/06/22 07:53:49;;;;;;;15.48;9.00;;;19.80;99.90;;;;;;5025073;28;20080;-70
2023/06/22 07:56:18;;;;;;;18.65;10.18;;;19.90;99.90;;;;;;5025535;28;20091;-70
2023/06/22 07:58:45;;;;;;;17.92;9.82;;;19.90;99.90;;;;;;5025927;28;20045;-70
2023/06/22 08:01:11;;;;;;;16.70;9.70;;;20.00;99.90;;;;;;5019984;28;20100;-70
2023/06/22 08:03:37;;;;;;;15.02;9.40;;;20.00;99.90;;;;;;5006653;28;20077;-70
2023/06/22 08:06:03;;;;;;;14.30;7.97;;;20.10;99.90;;;;;;5004840;28;20053;-70
2023/06/22 08:08:28;;;;;;;12.57;7.95;;;20.10;99.90;;;;;;5006679;28;20553;-70
2023/06/22 08:10:54;;;;;;;13.40;8.05;;;20.20;99.90;;;;;;5004986;28;20042;-70
2023/06/22 08:13:20;;;;;;;16.90;9.32;;;20.30;99.90;;;;;;5005475;28;20137;-70
2023/06/22 08:15:45;;;;;;;15.45;8.05;;;20.40;99.90;;;;;;5006141;28;20041;-70
2023/06/22 08:18:11;;;;;;;16.80;8.80;;;20.40;99.90;;;;;;5005611;28;20096;-70
2023/06/22 08:20:37;;;;;;;12.23;7.13;;;20.40;99.90;;;;;;5003130;28;20156;-70
2023/06/22 08:23:06;;;;;;;11.32;6.95;;;20.50;99.90;;;;;;5005630;28;20045;-70
2023/06/22 08:25:33;;;;;;;14.68;8.57;;;20.50;99.90;;;;;;5004395;28;20129;-70
2023/06/22 08:27:59;;;;;;;12.27;7.45;;;20.50;99.90;;;;;;5004713;28;20157;-70
2023/06/22 08:30:25;;;;;;;15.00;7.93;;;20.60;99.90;;;;;;5006220;28;20428;-70
2023/06/22 08:32:50;;;;;;;16.05;7.32;;;20.60;99.90;;;;;;5006046;28;20399;-71
2023/06/22 08:35:16;;;;;;;13.75;7.82;;;20.60;99.90;;;;;;5004276;28;20038;-70
2023/06/22 08:37:42;;;;;;;14.32;7.53;;;20.70;99.90;;;;;;5006261;28;20056;-70
2023/06/22 08:40:09;;;;;;;12.60;8.52;;;20.80;99.90;;;;;;5005467;28;20045;-70
2023/06/22 08:42:40;;;;;;;14.40;8.07;;;20.80;99.90;;;;;;5004149;28;20104;-70
2023/06/22 08:45:06;;;;;;;12.23;6.90;;;20.90;99.90;;;;;;5005026;28;20456;-70
2023/06/22 08:47:32;;;;;;;11.25;5.90;;;21.00;99.90;;;;;;5004767;28;20485;-70
2023/06/22 08:49:58;;;;;;;11.85;7.53;;;21.00;99.90;;;;;;5005014;28;20045;-71
2023/06/22 08:52:24;;;;;;;9.88;6.75;;;21.10;99.90;;;;;;5003750;28;20129;-70
2023/06/22 08:54:51;;;;;;;12.15;6.70;;;21.10;99.90;;;;;;5004254;28;20400;-70
2023/06/22 08:57:16;;;;;;;10.82;7.03;;;21.20;99.90;;;;;;5004722;28;20056;-70
2023/06/22 08:59:42;;;;;;;10.75;6.15;;;21.20;99.90;;;;;;5005350;28;20050;-70
2023/06/22 09:02:09;;;;;;;10.95;6.88;;;21.20;99.90;;;;;;5016574;28;20041;-70
2023/06/22 09:04:34;;;;;;;12.23;7.15;;;21.30;99.90;;;;;;5025135;28;20094;-70
2023/06/22 09:07:01;;;;;;;7.82;6.20;;;21.30;99.90;;;;;;5024047;28;20476;-71
2023/06/22 09:09:27;;;;;;;6.95;4.10;;;21.30;99.90;;;;;;5024958;28;20055;-71
2023/06/22 09:11:52;;;;;;;8.75;5.13;;;21.40;99.90;;;;;;5025388;28;20057;-70
2023/06/22 09:14:18;;;;;;;6.93;4.80;;;21.40;99.90;;;;;;5024164;28;20494;-70
2023/06/22 09:16:44;;;;;;;11.05;6.55;;;21.40;99.90;;;;;;5023450;28;20068;-71
2023/06/22 09:19:09;;;;;;;12.85;6.53;;;21.50;99.90;;;;;;5024419;28;20038;-70
2023/06/22 09:21:35;;;;;;;14.68;6.90;;;21.60;99.90;;;;;;5023369;28;20348;-70
2023/06/22 09:24:01;;;;;;;8.32;5.72;;;21.60;99.90;;;;;;5024279;28;20377;-70
2023/06/22 09:26:26;;;;;;;10.45;5.80;;;21.60;99.90;;;;;;5024508;28;20492;-71
2023/06/22 09:28:52;;;;;;;15.57;5.68;;;21.70;99.90;;;;;;5023476;28;20034;-70
2023/06/22 09:31:25;;;;;;;10.95;6.53;;;21.70;99.90;;;;;;5023050;28;20455;-70
2023/06/22 09:33:54;;;;;;;7.32;5.07;;;21.80;99.90;;;;;;5024544;28;20522;-70
2023/06/22 09:36:20;;;;;;;8.77;5.68;;;21.90;99.90;;;;;;5022906;28;20048;-71
2023/06/22 09:38:47;;;;;;;8.60;5.38;;;21.90;99.90;;;;;;5024018;28;20488;-70
2023/06/22 09:41:12;;;;;;;12.27;6.88;;;21.90;99.90;;;;;;5022561;28;20100;-70
2023/06/22 09:43:38;;;;;;;11.30;6.57;;;22.00;99.90;;;;;;5024523;28;20081;-70
2023/06/22 09:46:03;;;;;;;12.52;6.25;;;22.00;99.90;;;;;;5023896;28;20041;-70
2023/06/22 09:48:30;;;;;;;9.05;5.15;;;22.00;99.90;;;;;;5025435;28;20407;-72
2023/06/22 09:50:56;;;;;;;7.82;4.80;;;22.00;99.90;;;;;;5033273;28;20041;-71
2023/06/22 09:53:22;;;;;;;8.40;5.20;;;22.10;99.90;;;;;;5044092;28;20472;-72
2023/06/22 09:55:47;;;;;;;10.70;5.32;;;22.10;99.90;;;;;;5034620;28;20056;-71
2023/06/22 09:58:13;;;;;;;9.10;5.22;;;22.20;99.90;;;;;;5042541;28;20040;-71
2023/06/22 10:00:39;;;;;;;7.88;5.25;;;22.20;99.90;;;;;;5033026;28;20108;-72
2023/06/22 10:03:04;;;;;;;9.55;5.43;;;22.30;99.90;;;;;;5028272;28;20094;-71
2023/06/22 10:05:30;;;;;;;10.82;5.78;;;22.30;99.90;;;;;;5006405;28;20136;-73
2023/06/22 10:07:55;;;;;;;7.45;5.00;;;22.30;99.90;;;;;;5024600;28;20447;-72
2023/06/22 10:10:21;;;;;;;9.57;5.63;;;22.40;99.90;;;;;;5030410;28;20083;-72
2023/06/22 10:12:55;;;;;;;11.20;6.10;;;22.50;99.90;;;;;;5043481;28;20045;-73
2023/06/22 10:15:21;;;;;;;8.70;6.03;;;22.40;99.90;;;;;;5040261;28;20045;-73
2023/06/22 10:17:47;;;;;;;9.48;5.78;;;22.40;99.90;;;;;;5042464;28;20085;-72
2023/06/22 10:20:13;;;;;;;9.38;6.50;;;22.40;99.90;;;;;;5034881;28;20093;-72
2023/06/22 10:22:43;;;;;;;9.95;6.10;;;22.40;99.90;;;;;;5027551;28;20053;-73
2023/06/22 10:25:10;;;;;;;8.88;6.28;;;22.40;99.90;;;;;;5024021;28;20094;-73
2023/06/22 10:27:35;;;;;;;10.52;6.07;;;22.40;99.90;;;;;;5030517;28;20045;-72
2023/06/22 10:30:01;;;;;;;11.18;5.78;;;22.50;99.90;;;;;;5044138;28;20048;-73
2023/06/22 10:32:30;;;;;;;6.20;4.45;;;22.50;99.90;;;;;;5034645;28;20566;-72
2023/06/22 10:34:56;;;;;;;8.98;5.70;;;22.50;99.90;;;;;;5011886;28;20041;-73
2023/06/22 10:37:22;;;;;;;9.32;5.75;;;22.50;99.90;;;;;;5043398;28;20415;-72
2023/06/22 10:39:47;;;;;;;9.63;6.03;;;22.60;99.90;;;;;;5043862;28;20407;-73
2023/06/22 10:42:13;;;;;;;8.10;5.07;;;22.70;99.90;;;;;;5036513;28;20045;-73
2023/06/22 10:44:41;;;;;;;10.25;5.70;;;22.70;99.90;;;;;;5022752;28;20113;-73
2023/06/22 10:47:06;;;;;;;8.93;5.38;;;22.70;99.90;;;;;;5023481;28;20045;-73
2023/06/22 10:49:32;;;;;;;7.18;5.25;;;22.70;99.90;;;;;;5024930;28;20041;-72
2023/06/22 10:51:58;;;;;;;9.52;5.60;;;22.80;99.90;;;;;;5023383;28;20388;-77
2023/06/22 10:54:23;;;;;;;7.05;5.18;;;22.80;99.90;;;;;;5020755;28;20135;-72
2023/06/22 10:56:49;;;;;;;8.00;4.55;;;22.90;99.90;;;;;;5024293;28;20491;-71
2023/06/22 10:59:16;;;;;;;7.30;5.10;;;22.80;99.90;;;;;;5022096;28;20123;-73
2023/06/22 11:01:41;;;;;;;8.35;3.90;;;22.90;99.90;;;;;;5017144;28;20380;-72
2023/06/22 11:04:07;;;;;;;5.57;4.60;;;22.90;99.90;;;;;;5022122;28;20055;-71
2023/06/22 11:06:33;;;;;;;5.85;4.45;;;22.90;99.90;;;;;;5025325;28;20021;-72
2023/06/22 11:08:58;;;;;;;7.70;4.82;;;23.10;99.90;;;;;;5015328;28;20037;-71
2023/06/22 11:11:25;;;;;;;4.38;3.63;;;23.10;99.90;;;;;;5019059;28;20061;-71
2023/06/22 11:13:52;;;;;;;7.18;4.18;;;23.10;99.90;;;;;;5020569;28;20077;-71
2023/06/22 11:16:17;;;;;;;9.15;4.93;;;23.10;99.90;;;;;;5025602;28;20045;-72
2023/06/22 11:18:43;;;;;;;8.07;5.15;;;23.20;99.90;;;;;;5025087;28;20351;-71
2023/06/22 11:21:08;;;;;;;8.00;4.75;;;23.30;99.90;;;;;;5040773;28;20450;-72
2023/06/22 11:23:34;;;;;;;9.98;4.32;;;23.30;99.90;;;;;;5030834;28;20097;-73
2023/06/22 11:26:00;;;;;;;7.78;4.32;;;23.30;99.90;;;;;;5021400;28;20120;-74
2023/06/22 11:28:25;;;;;;;6.95;4.35;;;23.30;99.90;;;;;;5026448;28;20049;-73
2023/06/22 11:30:51;;;;;;;6.30;3.85;;;23.40;99.90;;;;;;5017646;28;20516;-73
2023/06/22 11:33:17;;;;;;;7.38;5.25;;;23.40;99.90;;;;;;5012912;28;20083;-72
2023/06/22 11:35:43;;;;;;;8.48;5.90;;;23.40;99.90;;;;;;5019266;28;20073;-72
2023/06/22 11:38:08;;;;;;;7.68;4.93;;;23.50;99.90;;;;;;5030395;28;20046;-73
2023/06/22 11:40:34;;;;;;;9.95;4.32;;;23.60;99.90;;;;;;5029422;28;20033;-72
2023/06/22 11:42:59;;;;;;;5.57;3.60;;;23.60;99.90;;;;;;5024467;28;20033;-74
2023/06/22 11:45:25;;;;;;;5.85;3.90;;;23.60;99.90;;;;;;5023518;28;20049;-72
2023/06/22 11:47:51;;;;;;;6.60;3.83;;;23.60;99.90;;;;;;5021412;28;20395;-72
2023/06/22 11:50:17;;;;;;;5.85;3.80;;;23.60;99.90;;;;;;5020343;28;20303;-73
2023/06/22 11:52:42;;;;;;;6.03;3.88;;;23.60;99.90;;;;;;5023256;28;20041;-72
2023/06/22 11:55:08;;;;;;;4.30;3.22;;;23.70;99.90;;;;;;5024910;28;20045;-72
2023/06/22 11:57:36;;;;;;;5.07;3.63;;;23.70;99.90;;;;;;5024903;28;20412;-73
2023/06/22 12:00:06;;;;;;;4.93;3.53;;;23.70;99.90;;;;;;5025197;28;20057;-72
2023/06/22 12:02:32;;;;;;;6.03;3.60;;;23.70;99.90;;;;;;5010944;28;20077;-71
2023/06/22 12:04:58;;;;;;;6.03;3.95;;;23.60;99.90;;;;;;5016155;28;20041;-73
2023/06/22 12:07:23;;;;;;;6.47;4.13;;;23.60;99.90;;;;;;5024267;28;20052;-71
2023/06/22 12:09:49;;;;;;;6.75;3.83;;;23.60;99.90;;;;;;5014886;28;20313;-71
2023/06/22 12:12:15;;;;;;;4.82;3.53;;;23.60;99.90;;;;;;5016525;28;20156;-72
2023/06/22 12:14:40;;;;;;;6.10;4.03;;;23.50;99.90;;;;;;5006511;28;20045;-71
2023/06/22 12:17:06;;;;;;;7.97;3.42;;;23.50;99.90;;;;;;5012465;28;20049;-73
2023/06/22 12:19:32;;;;;;;4.72;3.22;;;23.50;99.90;;;;;;5022169;28;20049;-72
2023/06/22 12:21:57;;;;;;;5.45;3.22;;;23.50;99.90;;;;;;5011548;28;20046;-71
2023/06/22 12:24:23;;;;;;;4.38;3.08;;;23.50;99.90;;;;;;5024592;28;20499;-73
2023/06/22 12:26:49;;;;;;;3.55;2.92;;;23.50;99.90;;;;;;5026450;28;20037;-71
2023/06/22 12:29:14;;;;;;;4.75;2.70;;;23.40;99.90;;;;;;5024767;28;20037;-72
2023/06/22 12:31:41;;;;;;;5.57;2.50;;;23.40;99.90;;;;;;5028764;28;20048;-72